createdAt,value
2023-08-11T00:00:52.723Z,15.68
2023-08-11T00:03:19.535Z,15.66
2023-08-11T00:05:46.898Z,15.66
2023-08-11T00:08:14.453Z,15.65
2023-08-11T00:10:42.030Z,15.61
2023-08-11T00:13:13.783Z,15.55
2023-08-11T00:15:41.246Z,15.49
2023-08-11T00:18:11.381Z,15.46
2023-08-11T00:20:38.598Z,15.57
2023-08-11T00:23:06.037Z,15.51
2023-08-11T00:25:33.027Z,15.45
2023-08-11T00:28:02.310Z,15.35
2023-08-11T00:30:28.999Z,15.41
2023-08-11T00:32:55.833Z,15.35
2023-08-11T00:35:25.595Z,15.28
2023-08-11T00:37:52.299Z,15.28
2023-08-11T00:40:19.306Z,15.31
2023-08-11T00:42:46.846Z,15.29
2023-08-11T00:45:13.816Z,15.22
2023-08-11T00:47:43.206Z,15.16
2023-08-11T00:50:15.064Z,15.13
2023-08-11T00:52:45.686Z,15.22
2023-08-11T00:55:14.111Z,15.15
2023-08-11T00:57:42.112Z,15.18
2023-08-11T01:00:16.731Z,15.25
2023-08-11T01:02:46.103Z,15.28
2023-08-11T01:05:16.995Z,15.17
2023-08-11T01:08:13.468Z,15.00
2023-08-11T01:11:34.608Z,14.97
2023-08-11T01:14:16.677Z,15.03
2023-08-11T01:16:49.285Z,15.01
2023-08-11T01:19:29.649Z,14.99
2023-08-11T01:22:00.942Z,15.06
2023-08-11T01:24:32.585Z,15.00
2023-08-11T01:27:00.068Z,14.94
2023-08-11T01:29:27.523Z,14.96
2023-08-11T01:31:54.318Z,14.85
2023-08-11T01:34:22.416Z,14.86
2023-08-11T01:37:05.383Z,14.82
2023-08-11T01:39:33.197Z,14.93
2023-08-11T01:41:59.917Z,14.88
2023-08-11T01:44:26.973Z,14.91
2023-08-11T01:46:57.532Z,14.84
2023-08-11T01:49:28.188Z,14.72
2023-08-11T01:51:57.240Z,14.71
2023-08-11T01:54:24.729Z,14.73
2023-08-11T01:56:52.848Z,14.73
2023-08-11T01:59:19.539Z,14.70
2023-08-11T02:01:46.338Z,14.74
2023-08-11T02:04:14.026Z,14.76
2023-08-11T02:06:41.686Z,14.71
2023-08-11T02:09:13.625Z,14.66
2023-08-11T02:11:40.694Z,14.68
2023-08-11T02:14:07.470Z,14.62
2023-08-11T02:16:34.783Z,14.66
2023-08-11T02:19:01.666Z,14.67
2023-08-11T02:21:29.707Z,14.73
2023-08-11T02:23:56.596Z,14.69
2023-08-11T02:26:23.789Z,14.68
2023-08-11T02:28:50.893Z,14.66
2023-08-11T02:31:19.218Z,14.62
2023-08-11T02:33:46.413Z,14.55
2023-08-11T02:36:18.570Z,14.52
2023-08-11T02:38:45.214Z,14.51
2023-08-11T02:41:12.354Z,14.45
2023-08-11T02:43:39.033Z,14.40
2023-08-11T02:46:07.177Z,14.39
2023-08-11T02:48:35.072Z,14.32
2023-08-11T02:51:04.956Z,14.33
2023-08-11T02:53:32.905Z,14.50
2023-08-11T02:56:07.671Z,14.53
2023-08-11T02:58:34.823Z,14.47
2023-08-11T03:01:02.196Z,14.44
2023-08-11T03:03:29.962Z,14.42
2023-08-11T03:05:58.074Z,14.43
2023-08-11T03:08:24.962Z,14.45
2023-08-11T03:10:57.126Z,14.36
2023-08-11T03:13:25.087Z,14.29
2023-08-11T03:15:53.428Z,14.27
2023-08-11T03:18:20.820Z,14.34
2023-08-11T03:20:48.732Z,14.42
2023-08-11T03:23:18.452Z,14.34
2023-08-11T03:25:45.924Z,14.38
2023-08-11T03:28:12.739Z,14.37
2023-08-11T03:30:39.778Z,14.39
2023-08-11T03:33:06.892Z,14.46
2023-08-11T03:35:37.415Z,14.49
2023-08-11T03:38:04.367Z,14.47
2023-08-11T03:40:31.129Z,14.42
2023-08-11T03:42:57.775Z,14.35
2023-08-11T03:45:25.268Z,14.32
2023-08-11T03:47:52.273Z,14.32
2023-08-11T03:50:19.122Z,14.31
2023-08-11T03:52:46.279Z,14.28
2023-08-11T03:55:13.733Z,14.25
2023-08-11T03:57:40.514Z,14.24
2023-08-11T04:00:16.126Z,14.23
2023-08-11T04:02:45.114Z,14.12
2023-08-11T04:05:12.210Z,14.14
2023-08-11T04:07:40.028Z,14.09
2023-08-11T04:10:07.848Z,14.04
2023-08-11T04:12:34.603Z,14.05
2023-08-11T04:15:01.360Z,13.98
2023-08-11T04:17:28.138Z,13.94
2023-08-11T04:19:55.162Z,13.89
2023-08-11T04:22:32.780Z,13.94
2023-08-11T04:25:06.391Z,13.96
2023-08-11T04:27:33.044Z,13.93
2023-08-11T04:29:59.829Z,13.94
2023-08-11T04:32:26.629Z,13.93
2023-08-11T04:34:53.418Z,14.03
2023-08-11T04:37:20.071Z,14.08
2023-08-11T04:39:46.790Z,14.09
2023-08-11T04:42:17.555Z,14.04
2023-08-11T04:44:44.550Z,14.06
2023-08-11T04:47:11.612Z,14.05
2023-08-11T04:49:38.367Z,14.04
2023-08-11T04:52:05.163Z,14.10
2023-08-11T04:54:31.820Z,14.13
2023-08-11T04:56:58.470Z,14.05
2023-08-11T04:59:25.720Z,14.12
2023-08-11T05:01:52.419Z,14.18
2023-08-11T05:04:19.089Z,14.23
2023-08-11T05:06:45.748Z,14.31
2023-08-11T05:09:12.370Z,14.35
2023-08-11T05:11:39.073Z,14.38
2023-08-11T05:14:06.042Z,14.47
2023-08-11T05:16:32.688Z,14.50
2023-08-11T05:18:59.428Z,14.51
2023-08-11T05:21:26.215Z,14.50
2023-08-11T05:23:52.970Z,14.49
2023-08-11T05:26:19.745Z,14.52
2023-08-11T05:28:46.813Z,14.58
2023-08-11T05:31:13.613Z,14.62
2023-08-11T05:33:42.637Z,14.59
2023-08-11T05:36:10.039Z,14.53
2023-08-11T05:38:36.763Z,14.48
2023-08-11T05:41:04.291Z,14.53
2023-08-11T05:43:31.171Z,14.59
2023-08-11T05:45:58.455Z,14.67
2023-08-11T05:48:25.402Z,14.74
2023-08-11T05:50:52.254Z,14.79
2023-08-11T05:53:18.909Z,14.85
2023-08-11T05:55:45.619Z,14.95
2023-08-11T05:58:12.353Z,14.99
2023-08-11T06:00:39.214Z,14.99
2023-08-11T06:03:05.958Z,15.03
2023-08-11T06:05:33.733Z,15.07
2023-08-11T06:08:06.819Z,15.16
2023-08-11T06:10:34.909Z,15.23
2023-08-11T06:13:01.789Z,15.31
2023-08-11T06:15:28.485Z,15.34
2023-08-11T06:17:55.212Z,15.34
2023-08-11T06:20:34.383Z,15.42
2023-08-11T06:23:06.225Z,15.45
2023-08-11T06:25:32.909Z,15.55
2023-08-11T06:27:59.594Z,15.67
2023-08-11T06:30:29.194Z,15.78
2023-08-11T06:32:56.341Z,15.87
2023-08-11T06:35:23.459Z,15.89
2023-08-11T06:37:50.319Z,15.99
2023-08-11T06:40:17.178Z,16.07
2023-08-11T06:42:44.176Z,16.09
2023-08-11T06:45:11.699Z,16.17
2023-08-11T06:47:38.728Z,16.26
2023-08-11T06:50:06.195Z,16.35
2023-08-11T06:52:33.011Z,16.42
2023-08-11T06:54:59.775Z,16.47
2023-08-11T06:57:26.594Z,16.54
2023-08-11T06:59:53.356Z,16.63
2023-08-11T07:02:20.117Z,16.70
2023-08-11T07:04:46.818Z,16.78
2023-08-11T07:07:14.740Z,16.84
2023-08-11T07:09:42.754Z,16.92
2023-08-11T07:12:09.533Z,17.00
2023-08-11T07:14:36.343Z,17.04
2023-08-11T07:17:03.548Z,17.10
2023-08-11T07:19:30.359Z,17.15
2023-08-11T07:21:57.082Z,17.15
2023-08-11T07:24:23.744Z,17.18
2023-08-11T07:26:50.540Z,17.22
2023-08-11T07:29:17.211Z,17.30
2023-08-11T07:31:45.302Z,17.34
2023-08-11T07:34:12.348Z,17.35
2023-08-11T07:36:39.345Z,17.40
2023-08-11T07:39:22.129Z,17.41
2023-08-11T07:41:52.221Z,17.47
2023-08-11T07:44:19.325Z,17.54
2023-08-11T07:46:46.314Z,17.60
2023-08-11T07:49:13.656Z,17.66
2023-08-11T07:51:42.252Z,17.72
2023-08-11T07:54:09.960Z,17.76
2023-08-11T07:56:36.961Z,17.76
2023-08-11T07:59:03.958Z,17.84
2023-08-11T08:01:31.031Z,17.89
2023-08-11T08:03:57.869Z,17.97
2023-08-11T08:06:25.174Z,18.02
2023-08-11T08:08:52.033Z,18.10
2023-08-11T08:11:18.823Z,18.17
2023-08-11T08:13:45.564Z,18.19
2023-08-11T08:16:12.814Z,18.22
2023-08-11T08:18:39.641Z,18.29
2023-08-11T08:21:06.995Z,18.33
2023-08-11T08:23:34.256Z,18.39
2023-08-11T08:26:01.020Z,18.42
2023-08-11T08:28:34.358Z,18.49
2023-08-11T08:31:01.268Z,18.56
2023-08-11T08:33:29.127Z,18.60
2023-08-11T08:36:11.480Z,18.60
2023-08-11T08:38:38.192Z,18.66
2023-08-11T08:41:12.646Z,18.67
2023-08-11T08:43:39.425Z,18.77
2023-08-11T08:46:08.107Z,18.80
2023-08-11T08:49:02.388Z,18.74
2023-08-11T08:51:33.814Z,18.82
2023-08-11T08:54:09.362Z,18.90
2023-08-11T08:56:41.165Z,18.96
2023-08-11T08:59:10.321Z,18.97
2023-08-11T09:01:38.991Z,19.04
2023-08-11T09:04:08.214Z,19.06
2023-08-11T09:06:36.751Z,19.09
2023-08-11T09:09:06.020Z,19.12
2023-08-11T09:11:32.987Z,19.20
2023-08-11T09:14:14.174Z,19.17
2023-08-11T09:16:41.541Z,19.26
2023-08-11T09:19:14.166Z,19.24
2023-08-11T09:21:44.851Z,19.25
2023-08-11T09:24:16.077Z,19.32
2023-08-11T09:26:45.832Z,19.34
2023-08-11T09:29:15.009Z,19.35
2023-08-11T09:31:42.751Z,19.38
2023-08-11T09:34:20.943Z,19.33
2023-08-11T09:36:50.095Z,19.44
2023-08-11T09:39:18.369Z,19.45
2023-08-11T09:41:50.220Z,19.39
2023-08-11T09:44:19.750Z,19.53
2023-08-11T09:46:47.588Z,19.59
2023-08-11T09:49:21.843Z,19.61
2023-08-11T09:51:54.966Z,19.59
2023-08-11T09:54:24.003Z,19.65
2023-08-11T09:56:54.710Z,19.66
2023-08-11T09:59:27.285Z,19.70
2023-08-11T10:02:02.971Z,19.66
2023-08-11T10:04:44.558Z,19.66
2023-08-11T10:07:17.278Z,19.74
2023-08-11T10:09:48.422Z,19.87
2023-08-11T10:12:16.174Z,19.92
2023-08-11T10:14:44.037Z,19.95
2023-08-11T10:17:17.313Z,19.95
2023-08-11T10:19:44.596Z,20.01
2023-08-11T10:22:12.855Z,20.07
2023-08-11T10:24:42.045Z,20.11
2023-08-11T10:27:09.448Z,20.14
2023-08-11T10:29:40.484Z,20.19
2023-08-11T10:32:12.048Z,20.26
2023-08-11T10:34:38.940Z,20.27
2023-08-11T10:37:08.591Z,20.30
2023-08-11T10:39:40.222Z,20.38
2023-08-11T10:42:14.069Z,20.37
2023-08-11T10:44:47.684Z,20.36
2023-08-11T10:47:14.547Z,20.44
2023-08-11T10:49:44.373Z,20.41
2023-08-11T10:52:12.947Z,20.56
2023-08-11T10:54:52.017Z,20.54
2023-08-11T10:57:18.811Z,20.66
2023-08-11T10:59:45.597Z,20.74
2023-08-11T11:02:13.949Z,20.86
2023-08-11T11:04:42.775Z,20.93
2023-08-11T11:07:09.448Z,21.02
2023-08-11T11:09:36.189Z,21.15
2023-08-11T11:12:02.911Z,21.27
2023-08-11T11:14:31.288Z,21.40
2023-08-11T11:17:01.103Z,21.45
2023-08-11T11:19:28.683Z,21.61
2023-08-11T11:21:55.988Z,21.81
2023-08-11T11:24:23.077Z,22.08
2023-08-11T11:26:50.089Z,22.38
2023-08-11T11:29:22.217Z,22.67
2023-08-11T11:31:49.070Z,23.00
2023-08-11T11:34:15.912Z,23.30
2023-08-11T11:36:43.147Z,23.56
2023-08-11T11:39:11.056Z,23.77
2023-08-11T11:41:37.758Z,23.94
2023-08-11T11:44:04.865Z,24.14
2023-08-11T11:46:34.011Z,24.32
2023-08-11T11:49:12.664Z,24.54
2023-08-11T11:51:47.552Z,24.82
2023-08-11T11:54:14.473Z,25.11
2023-08-11T11:56:47.132Z,25.43
2023-08-11T11:59:17.438Z,25.78
2023-08-11T12:01:44.682Z,26.05
2023-08-11T12:04:11.958Z,26.23
2023-08-11T12:06:38.832Z,26.54
2023-08-11T12:09:11.690Z,26.81
2023-08-11T12:11:41.778Z,27.08
2023-08-11T12:14:08.814Z,27.37
2023-08-11T12:16:37.202Z,27.52
2023-08-11T12:19:04.787Z,27.61
2023-08-11T12:21:34.781Z,27.68
2023-08-11T12:24:01.809Z,27.77
2023-08-11T12:26:29.675Z,27.82
2023-08-11T12:28:59.556Z,27.84
2023-08-11T12:31:26.343Z,27.74
2023-08-11T12:33:53.130Z,28.05
2023-08-11T12:36:20.151Z,28.28
2023-08-11T12:38:48.891Z,28.68
2023-08-11T12:41:19.028Z,29.01
2023-08-11T12:43:45.775Z,29.32
2023-08-11T12:46:12.662Z,29.64
2023-08-11T12:48:39.404Z,29.90
2023-08-11T12:51:06.688Z,30.23
2023-08-11T12:53:33.428Z,30.50
2023-08-11T12:56:00.237Z,30.78
2023-08-11T12:58:27.773Z,30.93
2023-08-11T13:00:54.457Z,31.06
2023-08-11T13:03:21.267Z,31.10
2023-08-11T13:05:48.888Z,31.10
2023-08-11T13:08:15.566Z,30.90
2023-08-11T13:10:42.450Z,30.62
2023-08-11T13:13:10.825Z,30.41
2023-08-11T13:15:39.700Z,30.21
2023-08-11T13:18:06.457Z,29.98
2023-08-11T13:20:33.248Z,29.88
2023-08-11T13:22:59.930Z,29.80
2023-08-11T13:25:26.665Z,29.70
2023-08-11T13:27:53.374Z,29.59
2023-08-11T13:30:22.344Z,29.53
2023-08-11T13:32:49.222Z,29.53
2023-08-11T13:35:25.350Z,29.65
2023-08-11T13:37:52.152Z,29.80
2023-08-11T13:40:20.177Z,30.00
2023-08-11T13:42:46.870Z,30.16
2023-08-11T13:45:14.593Z,30.40
2023-08-11T13:47:41.497Z,30.64
2023-08-11T13:50:08.880Z,30.83
2023-08-11T13:52:35.628Z,30.98
2023-08-11T13:55:07.200Z,31.06
2023-08-11T13:57:35.309Z,30.99
2023-08-11T14:00:02.044Z,30.85
2023-08-11T14:02:31.949Z,30.82
2023-08-11T14:04:58.764Z,30.83
2023-08-11T14:07:30.644Z,30.80
2023-08-11T14:09:59.403Z,30.85
2023-08-11T14:12:26.135Z,30.83
2023-08-11T14:14:52.769Z,30.76
2023-08-11T14:17:19.493Z,30.60
2023-08-11T14:19:46.151Z,30.42
2023-08-11T14:22:12.824Z,30.31
2023-08-11T14:24:39.563Z,30.12
2023-08-11T14:27:07.122Z,29.98
2023-08-11T14:29:33.772Z,29.86
2023-08-11T14:32:13.841Z,29.77
2023-08-11T14:34:45.319Z,29.68
2023-08-11T14:37:15.147Z,29.60
2023-08-11T14:39:43.713Z,29.54
2023-08-11T14:42:10.525Z,29.46
2023-08-11T14:44:37.644Z,29.40
2023-08-11T14:47:04.382Z,29.29
2023-08-11T14:49:31.100Z,29.29
2023-08-11T14:51:57.775Z,29.30
2023-08-11T14:54:27.744Z,29.34
2023-08-11T14:56:55.599Z,29.41
2023-08-11T14:59:22.361Z,29.51
2023-08-11T15:01:49.170Z,29.59
2023-08-11T15:04:15.887Z,29.66
2023-08-11T15:06:42.576Z,29.55
2023-08-11T15:09:09.488Z,29.49
2023-08-11T15:11:36.762Z,29.35
2023-08-11T15:14:03.679Z,29.19
2023-08-11T15:16:30.726Z,29.04
2023-08-11T15:18:57.519Z,28.92
2023-08-11T15:21:25.360Z,28.77
2023-08-11T15:23:52.066Z,28.71
2023-08-11T15:26:19.544Z,28.61
2023-08-11T15:28:46.206Z,28.36
2023-08-11T15:31:13.018Z,28.28
2023-08-11T15:33:39.819Z,28.20
2023-08-11T15:36:06.554Z,28.15
2023-08-11T15:38:33.330Z,28.19
2023-08-11T15:41:03.764Z,28.36
2023-08-11T15:43:32.964Z,29.41
2023-08-11T15:45:59.926Z,30.87
2023-08-11T15:48:28.618Z,32.28
2023-08-11T15:50:55.633Z,33.52
2023-08-11T15:53:22.650Z,34.56
2023-08-11T15:55:49.432Z,35.49
2023-08-11T15:58:16.253Z,36.06
2023-08-11T16:00:43.591Z,36.25
2023-08-11T16:03:10.744Z,36.66
2023-08-11T16:05:37.741Z,37.20
2023-08-11T16:08:05.300Z,37.62
2023-08-11T16:10:37.682Z,38.20
2023-08-11T16:13:04.855Z,38.69
2023-08-11T16:15:32.254Z,38.99
2023-08-11T16:17:58.929Z,39.49
2023-08-11T16:20:25.777Z,39.66
2023-08-11T16:22:53.231Z,40.06
2023-08-11T16:25:20.204Z,40.20
2023-08-11T16:27:46.861Z,40.15
2023-08-11T16:30:14.139Z,39.60
2023-08-11T16:32:40.871Z,38.49
2023-08-11T16:35:09.173Z,37.31
2023-08-11T16:37:36.051Z,36.54
2023-08-11T16:40:03.897Z,36.31
2023-08-11T16:42:30.641Z,35.78
2023-08-11T16:44:57.325Z,34.93
2023-08-11T16:47:24.034Z,34.06
2023-08-11T16:49:51.529Z,33.25
2023-08-11T16:52:18.174Z,32.61
2023-08-11T16:54:44.874Z,32.04
2023-08-11T16:57:13.520Z,31.41
2023-08-11T16:59:40.434Z,30.86
2023-08-11T17:02:07.219Z,30.44
2023-08-11T17:04:33.921Z,30.07
2023-08-11T17:07:00.605Z,29.69
2023-08-11T17:09:27.330Z,29.44
2023-08-11T17:11:54.012Z,29.14
2023-08-11T17:14:20.663Z,28.93
2023-08-11T17:16:47.375Z,28.69
2023-08-11T17:19:14.013Z,28.52
2023-08-11T17:21:42.641Z,28.33
2023-08-11T17:24:09.274Z,28.29
2023-08-11T17:26:35.955Z,28.14
2023-08-11T17:29:02.594Z,28.04
2023-08-11T17:31:29.388Z,27.90
2023-08-11T17:33:56.148Z,27.77
2023-08-11T17:36:27.376Z,27.63
2023-08-11T17:38:55.995Z,27.49
2023-08-11T17:41:25.147Z,27.38
2023-08-11T17:43:52.698Z,27.23
2023-08-11T17:46:20.716Z,27.12
2023-08-11T17:48:47.551Z,26.95
2023-08-11T17:51:14.335Z,26.82
2023-08-11T17:53:41.649Z,26.71
2023-08-11T17:56:09.237Z,26.57
2023-08-11T17:58:35.946Z,26.40
2023-08-11T18:01:02.693Z,26.27
2023-08-11T18:03:29.532Z,26.12
2023-08-11T18:05:56.698Z,25.99
2023-08-11T18:08:23.425Z,25.86
2023-08-11T18:10:50.176Z,25.70
2023-08-11T18:13:17.651Z,25.56
2023-08-11T18:15:44.486Z,25.44
2023-08-11T18:18:11.180Z,25.29
2023-08-11T18:20:37.914Z,25.18
2023-08-11T18:23:04.616Z,25.06
2023-08-11T18:25:31.497Z,24.95
2023-08-11T18:27:58.252Z,24.87
2023-08-11T18:30:24.885Z,24.77
2023-08-11T18:32:51.627Z,24.67
2023-08-11T18:35:18.415Z,24.58
2023-08-11T18:37:45.083Z,24.51
2023-08-11T18:40:12.272Z,24.45
2023-08-11T18:42:39.043Z,24.36
2023-08-11T18:45:07.275Z,24.28
2023-08-11T18:47:35.166Z,24.17
2023-08-11T18:50:02.073Z,24.09
2023-08-11T18:52:28.689Z,24.01
2023-08-11T18:54:55.391Z,23.94
2023-08-11T18:57:22.107Z,23.86
2023-08-11T18:59:48.838Z,23.76
2023-08-11T19:02:16.040Z,23.70
2023-08-11T19:04:42.889Z,23.61
2023-08-11T19:07:09.606Z,23.58
2023-08-11T19:09:36.338Z,23.51
2023-08-11T19:12:03.070Z,23.45
2023-08-11T19:14:30.119Z,23.37
2023-08-11T19:16:57.580Z,23.32
2023-08-11T19:19:24.595Z,23.23
2023-08-11T19:21:51.218Z,23.18
2023-08-11T19:24:17.990Z,23.11
2023-08-11T19:26:45.833Z,23.04
2023-08-11T19:29:13.493Z,22.95
2023-08-11T19:31:40.335Z,22.88
2023-08-11T19:34:07.091Z,22.83
2023-08-11T19:36:35.121Z,22.77
2023-08-11T19:39:03.682Z,22.67
2023-08-11T19:41:30.323Z,22.65
2023-08-11T19:43:57.546Z,22.59
2023-08-11T19:46:24.372Z,22.58
2023-08-11T19:48:51.105Z,22.54
2023-08-11T19:51:17.792Z,22.50
2023-08-11T19:53:44.987Z,22.44
2023-08-11T19:56:11.672Z,22.36
2023-08-11T19:58:38.348Z,22.30
2023-08-11T20:01:07.060Z,22.23
2023-08-11T20:03:33.860Z,22.20
2023-08-11T20:06:01.058Z,22.18
2023-08-11T20:08:27.833Z,22.12
2023-08-11T20:10:54.514Z,22.08
2023-08-11T20:13:21.235Z,22.04
2023-08-11T20:15:48.090Z,22.01
2023-08-11T20:18:14.996Z,21.95
2023-08-11T20:20:45.510Z,21.85
2023-08-11T20:23:12.263Z,21.85
2023-08-11T20:25:39.230Z,21.79
2023-08-11T20:28:06.373Z,21.75
2023-08-11T20:30:33.176Z,21.72
2023-08-11T20:33:00.183Z,21.68
2023-08-11T20:35:28.659Z,21.62
2023-08-11T20:37:58.791Z,21.54
2023-08-11T20:40:25.474Z,21.49
2023-08-11T20:42:52.238Z,21.44
2023-08-11T20:45:19.060Z,21.43
2023-08-11T20:47:45.744Z,21.40
2023-08-11T20:50:12.488Z,21.33
2023-08-11T20:52:39.220Z,21.28
2023-08-11T20:55:06.572Z,21.24
2023-08-11T20:57:33.253Z,21.21
2023-08-11T20:59:59.911Z,21.21
2023-08-11T21:02:26.587Z,21.15
2023-08-11T21:04:53.212Z,21.11
2023-08-11T21:07:19.879Z,21.07
2023-08-11T21:09:46.619Z,21.04
2023-08-11T21:12:13.316Z,21.02
2023-08-11T21:14:39.942Z,20.98
2023-08-11T21:17:09.292Z,20.92
2023-08-11T21:19:36.385Z,20.86
2023-08-11T21:22:03.230Z,20.83
2023-08-11T21:24:29.921Z,20.80
2023-08-11T21:26:56.638Z,20.77
2023-08-11T21:29:23.352Z,20.74
2023-08-11T21:31:50.128Z,20.73
2023-08-11T21:34:16.854Z,20.70
2023-08-11T21:36:43.628Z,20.68
2023-08-11T21:39:11.048Z,20.66
2023-08-11T21:41:37.771Z,20.64
2023-08-11T21:44:04.804Z,20.62
2023-08-11T21:46:32.089Z,20.61
2023-08-11T21:48:58.956Z,20.58
2023-08-11T21:51:26.464Z,20.54
2023-08-11T21:53:53.281Z,20.47
2023-08-11T21:56:19.960Z,20.41
2023-08-11T21:58:46.724Z,20.40
2023-08-11T22:01:13.671Z,20.39
2023-08-11T22:03:40.353Z,20.38
2023-08-11T22:06:07.222Z,20.38
2023-08-11T22:08:34.053Z,20.36
2023-08-11T22:11:00.797Z,20.32
2023-08-11T22:13:27.647Z,20.28
2023-08-11T22:15:54.415Z,20.26
2023-08-11T22:18:21.119Z,20.23
2023-08-11T22:20:47.830Z,20.21
2023-08-11T22:23:14.522Z,20.19
2023-08-11T22:25:41.236Z,20.18
2023-08-11T22:28:08.563Z,20.17
2023-08-11T22:30:36.062Z,20.15
2023-08-11T22:33:03.472Z,20.16
2023-08-11T22:35:30.376Z,20.17
2023-08-11T22:37:57.874Z,20.13
2023-08-11T22:40:24.558Z,20.12
2023-08-11T22:42:51.248Z,20.10
2023-08-11T22:45:18.142Z,20.07
2023-08-11T22:47:45.026Z,20.01
2023-08-11T22:50:11.804Z,19.97
2023-08-11T22:52:38.481Z,19.97
2023-08-11T22:55:05.735Z,19.95
2023-08-11T22:57:32.376Z,19.94
2023-08-11T22:59:59.104Z,19.92
2023-08-11T23:02:25.956Z,19.93
2023-08-11T23:04:55.471Z,19.91
2023-08-11T23:07:25.766Z,19.91
2023-08-11T23:09:52.480Z,19.91
2023-08-11T23:12:19.098Z,19.90
2023-08-11T23:14:45.797Z,19.69
2023-08-11T23:17:12.744Z,19.76
2023-08-11T23:19:39.765Z,19.79
2023-08-11T23:22:06.533Z,19.79
2023-08-11T23:24:33.919Z,19.73
2023-08-11T23:27:01.803Z,19.78
2023-08-11T23:29:28.439Z,19.73
2023-08-11T23:31:55.225Z,19.68
2023-08-11T23:34:21.992Z,19.74
2023-08-11T23:36:48.691Z,19.78
2023-08-11T23:39:15.344Z,19.82
2023-08-11T23:41:41.995Z,19.83
2023-08-11T23:44:08.693Z,19.82
2023-08-11T23:46:35.421Z,19.84
2023-08-11T23:49:02.106Z,19.84
2023-08-11T23:51:28.794Z,19.84
2023-08-11T23:53:57.390Z,19.85
2023-08-11T23:56:24.391Z,19.68
2023-08-11T23:58:52.073Z,19.72
